• Join FlightAware (Why Join?)
  • Login
  • US Flag 
06:54AM EDT


 

Airport Tracker/Info


-or-


 

Live Flight TrackerFlight Track Log ✈ EGF4021 ✈ 11-Jun-2013 ✈ KORD - KCMI

Flight Track Log - Related Links

Times and Time Zones

All times are in EDT time to prevent confusion due to time zone crossing. See the EGF4021 flight status page for this flight to view local times or setup timezone preferences in your user account.

Time Position Orientation Groundspeed Altitude Reporting Facility
EDT Latitude Longitude Course Direction KTS MPH feet Rate Location/Type
02:16PM 41.9411 -87.9111 188° South 166 191 17,000  Level Chicago Center
02:17PM 41.8931 -87.9475 209° Southwest 199 229 4,400 -5,040 Descending Chicago Center
02:18PM 41.7163 -87.9587 180° South  Level Estimated
02:18PM 41.8256 -87.9697 194° South 240 276 6,700  Level Chicago Center
02:19PM 41.6279 -87.9759 192° South  Level Estimated
02:19PM 41.7486 -87.9822 187° South 274 315 8,800  Level Chicago Center
02:20PM 41.5395 -87.9931 189° South  Level Estimated
02:20PM 41.6706 -87.9922 185° South 282 325 11,200  Level Chicago Center
02:21PM 41.4510 -88.0101 188° South  Level FlightAware Approximate
02:21PM 41.5869 -88.0042 186° South 300 345 13,000  Level Chicago Center
02:22PM 41.4989 -88.0169 186° South 316 364 14,600 1,620 Climbing Chicago Center
02:23PM 41.3961 -88.0358 188° South 328 377 16,400 1,140 Climbing Chicago Center
02:24PM 41.3022 -88.0653 193° South 350 403 17,000 240 Climbing Chicago Center
02:25PM 41.1719 -88.0956 190° South 397 457 17,000 -180 Level Chicago Center
02:26PM 41.0544 -88.1081 185° South 420 483 16,700 -1,080 Descending Chicago Center
02:27PM 40.9389 -88.1211 185° South 422 486 14,800 -1,920 Descending Chicago Center
02:28PM 40.8292 -88.1350 185° South 407 468 12,800 -1,800 Descending Chicago Center
02:30PM 40.7236 -88.1475 185° South 390 449 11,100 -900 Descending Chicago Center
02:31PM 40.6017 -88.1614 185° South 372 428 11,000 -60 Descending Chicago Center
02:32PM 40.4972 -88.1808 188° South 377 434 11,000 -60 Level Chicago Center
02:33PM 40.3983 -88.2017 189° South 367 422 10,900 -1,140 Descending Chicago Center
02:34PM 40.3183 -88.2178 189° South 306 352 8,700 -2,640 Descending Chicago Center
02:35PM 40.2531 -88.2611 207° Southwest 277 319 5,500 -2,700 Descending Chicago Center
02:36PM 40.1858 -88.3158 212° Southwest 257 296 3,200 -1,500 Descending Chicago Center
02:37PM 40.1267 -88.3344 194° South 241 277 2,500 -720 Descending Chicago Center